sensor_id;sensor_type;location;lat;lon;timestamp;pressure;altitude;pressure_sealevel;temperature;humidity
72585;BME280;60618;40.084;32.908;2023-03-05T00:02:07;89335.53;;;6.77;76.67
72585;BME280;60618;40.084;32.908;2023-03-05T00:04:34;89340.19;;;6.82;76.62
72585;BME280;60618;40.084;32.908;2023-03-05T00:07:01;89334.75;;;7.01;75.84
72585;BME280;60618;40.084;32.908;2023-03-05T00:09:28;89326.41;;;7.17;74.99
72585;BME280;60618;40.084;32.908;2023-03-05T00:11:55;89324.56;;;7.08;75.82
72585;BME280;60618;40.084;32.908;2023-03-05T00:14:22;89320.94;;;7.21;75.11
72585;BME280;60618;40.084;32.908;2023-03-05T00:16:49;89322.88;;;7.35;74.50
72585;BME280;60618;40.084;32.908;2023-03-05T00:19:16;89328.47;;;7.37;74.59
72585;BME280;60618;40.084;32.908;2023-03-05T00:21:43;89318.22;;;7.30;74.91
72585;BME280;60618;40.084;32.908;2023-03-05T00:24:16;89329.84;;;7.08;75.60
72585;BME280;60618;40.084;32.908;2023-03-05T00:26:44;89329.47;;;7.01;76.59
72585;BME280;60618;40.084;32.908;2023-03-05T00:29:15;89318.72;;;7.04;76.19
72585;BME280;60618;40.084;32.908;2023-03-05T00:31:42;89315.06;;;7.17;75.99
72585;BME280;60618;40.084;32.908;2023-03-05T00:34:12;89320.09;;;7.15;75.95
72585;BME280;60618;40.084;32.908;2023-03-05T00:36:41;89318.16;;;7.00;76.60
72585;BME280;60618;40.084;32.908;2023-03-05T00:39:09;89329.03;;;6.78;77.43
72585;BME280;60618;40.084;32.908;2023-03-05T00:41:36;89326.75;;;6.71;79.09
72585;BME280;60618;40.084;32.908;2023-03-05T00:44:03;89321.97;;;6.61;79.72
72585;BME280;60618;40.084;32.908;2023-03-05T00:46:29;89320.94;;;6.58;80.34
72585;BME280;60618;40.084;32.908;2023-03-05T00:48:56;89314.47;;;6.59;80.92
72585;BME280;60618;40.084;32.908;2023-03-05T00:51:24;89312.84;;;6.62;81.54
72585;BME280;60618;40.084;32.908;2023-03-05T00:53:51;89304.44;;;6.63;81.23
72585;BME280;60618;40.084;32.908;2023-03-05T00:56:17;89304.78;;;6.80;80.31
72585;BME280;60618;40.084;32.908;2023-03-05T00:58:44;89303.06;;;6.92;80.30
72585;BME280;60618;40.084;32.908;2023-03-05T01:01:12;89298.44;;;7.01;79.23
72585;BME280;60618;40.084;32.908;2023-03-05T01:03:39;89287.66;;;7.05;79.68
72585;BME280;60618;40.084;32.908;2023-03-05T01:06:08;89300.03;;;7.23;78.84
72585;BME280;60618;40.084;32.908;2023-03-05T01:08:35;89295.28;;;7.27;78.74
72585;BME280;60618;40.084;32.908;2023-03-05T01:11:04;89293.06;;;7.10;78.81
72585;BME280;60618;40.084;32.908;2023-03-05T01:13:31;89287.47;;;7.08;79.55
72585;BME280;60618;40.084;32.908;2023-03-05T01:15:59;89283.38;;;7.07;78.86
72585;BME280;60618;40.084;32.908;2023-03-05T01:18:26;89285.13;;;7.10;78.65
72585;BME280;60618;40.084;32.908;2023-03-05T01:20:53;89284.75;;;7.18;78.96
72585;BME280;60618;40.084;32.908;2023-03-05T01:23:20;89281.06;;;7.00;79.75
72585;BME280;60618;40.084;32.908;2023-03-05T01:25:58;89272.31;;;6.94;80.24
72585;BME280;60618;40.084;32.908;2023-03-05T01:28:26;89275.34;;;7.02;79.72
72585;BME280;60618;40.084;32.908;2023-03-05T01:30:53;89275.91;;;7.21;79.36
72585;BME280;60618;40.084;32.908;2023-03-05T01:33:20;89269.16;;;7.20;79.59
72585;BME280;60618;40.084;32.908;2023-03-05T01:35:48;89263.94;;;7.10;79.57
72585;BME280;60618;40.084;32.908;2023-03-05T01:38:15;89275.09;;;7.15;79.62
72585;BME280;60618;40.084;32.908;2023-03-05T01:40:42;89264.69;;;7.26;79.53
72585;BME280;60618;40.084;32.908;2023-03-05T01:45:37;89251.25;;;7.44;78.75
72585;BME280;60618;40.084;32.908;2023-03-05T01:48:04;89259.94;;;7.59;77.98
72585;BME280;60618;40.084;32.908;2023-03-05T01:50:32;89266.78;;;7.66;77.56
72585;BME280;60618;40.084;32.908;2023-03-05T01:53:02;89267.25;;;7.50;78.67
72585;BME280;60618;40.084;32.908;2023-03-05T01:55:31;89272.00;;;7.60;78.26
72585;BME280;60618;40.084;32.908;2023-03-05T01:58:07;89274.91;;;7.62;77.75
72585;BME280;60618;40.084;32.908;2023-03-05T02:00:49;89273.28;;;7.65;78.21
72585;BME280;60618;40.084;32.908;2023-03-05T02:03:18;89281.13;;;7.74;77.72
72585;BME280;60618;40.084;32.908;2023-03-05T02:05:47;89281.50;;;7.82;77.77
72585;BME280;60618;40.084;32.908;2023-03-05T02:08:18;89280.19;;;7.92;77.00
72585;BME280;60618;40.084;32.908;2023-03-05T02:10:53;89277.00;;;7.88;77.75
72585;BME280;60618;40.084;32.908;2023-03-05T02:13:32;89288.31;;;7.88;77.88
72585;BME280;60618;40.084;32.908;2023-03-05T02:16:00;89293.72;;;7.79;78.62
72585;BME280;60618;40.084;32.908;2023-03-05T02:18:27;89288.34;;;7.74;79.25
72585;BME280;60618;40.084;32.908;2023-03-05T02:23:24;89292.28;;;7.63;80.12
72585;BME280;60618;40.084;32.908;2023-03-05T02:25:52;89288.63;;;7.76;79.10
72585;BME280;60618;40.084;32.908;2023-03-05T02:28:25;89291.91;;;7.71;79.81
72585;BME280;60618;40.084;32.908;2023-03-05T02:30:53;89282.41;;;7.64;80.33
72585;BME280;60618;40.084;32.908;2023-03-05T02:33:20;89273.91;;;7.75;79.49
72585;BME280;60618;40.084;32.908;2023-03-05T02:35:47;89279.09;;;7.84;78.70
72585;BME280;60618;40.084;32.908;2023-03-05T02:38:16;89279.66;;;7.58;80.38
72585;BME280;60618;40.084;32.908;2023-03-05T02:40:43;89274.47;;;7.49;80.81
72585;BME280;60618;40.084;32.908;2023-03-05T02:43:10;89260.56;;;7.54;80.29
72585;BME280;60618;40.084;32.908;2023-03-05T02:45:38;89271.81;;;7.49;81.48
72585;BME280;60618;40.084;32.908;2023-03-05T02:48:05;89277.84;;;7.35;82.54
72585;BME280;60618;40.084;32.908;2023-03-05T02:50:33;89274.09;;;6.73;85.17
72585;BME280;60618;40.084;32.908;2023-03-05T02:53:00;89268.09;;;6.49;86.95
72585;BME280;60618;40.084;32.908;2023-03-05T02:55:27;89271.53;;;6.40;87.70
72585;BME280;60618;40.084;32.908;2023-03-05T02:57:54;89265.38;;;6.34;89.03
72585;BME280;60618;40.084;32.908;2023-03-05T03:00:21;89266.19;;;6.49;88.36
72585;BME280;60618;40.084;32.908;2023-03-05T03:02:48;89264.88;;;6.69;87.52
72585;BME280;60618;40.084;32.908;2023-03-05T03:05:14;89261.25;;;6.81;87.46
72585;BME280;60618;40.084;32.908;2023-03-05T03:07:41;89260.53;;;6.95;86.31
72585;BME280;60618;40.084;32.908;2023-03-05T03:10:09;89251.22;;;7.00;85.36
72585;BME280;60618;40.084;32.908;2023-03-05T03:12:38;89260.41;;;6.75;86.62
72585;BME280;60618;40.084;32.908;2023-03-05T03:15:06;89253.06;;;6.55;88.31
72585;BME280;60618;40.084;32.908;2023-03-05T03:17:35;89255.88;;;6.51;89.74
72585;BME280;60618;40.084;32.908;2023-03-05T03:20:07;89257.13;;;6.41;90.06
72585;BME280;60618;40.084;32.908;2023-03-05T03:22:35;89247.50;;;6.29;90.69
72585;BME280;60618;40.084;32.908;2023-03-05T03:25:03;89253.81;;;6.32;90.63
72585;BME280;60618;40.084;32.908;2023-03-05T03:27:30;89260.69;;;6.38;90.57
72585;BME280;60618;40.084;32.908;2023-03-05T03:29:58;89256.50;;;6.46;90.03
72585;BME280;60618;40.084;32.908;2023-03-05T03:32:25;89245.16;;;6.70;89.40
72585;BME280;60618;40.084;32.908;2023-03-05T03:34:52;89259.69;;;6.89;88.03
72585;BME280;60618;40.084;32.908;2023-03-05T03:37:19;89258.00;;;7.16;86.51
72585;BME280;60618;40.084;32.908;2023-03-05T03:39:46;89255.44;;;7.36;85.09
72585;BME280;60618;40.084;32.908;2023-03-05T03:42:16;89261.22;;;7.49;84.28
72585;BME280;60618;40.084;32.908;2023-03-05T03:44:43;89263.56;;;7.62;83.84
72585;BME280;60618;40.084;32.908;2023-03-05T03:47:10;89266.59;;;7.69;83.64
72585;BME280;60618;40.084;32.908;2023-03-05T03:49:37;89269.59;;;7.77;82.79
72585;BME280;60618;40.084;32.908;2023-03-05T03:52:04;89271.16;;;7.84;82.59
72585;BME280;60618;40.084;32.908;2023-03-05T03:54:31;89266.84;;;7.86;82.71
72585;BME280;60618;40.084;32.908;2023-03-05T03:56:58;89265.75;;;7.93;81.92
72585;BME280;60618;40.084;32.908;2023-03-05T03:59:25;89263.50;;;8.06;81.18
72585;BME280;60618;40.084;32.908;2023-03-05T04:01:52;89259.88;;;8.04;81.53
72585;BME280;60618;40.084;32.908;2023-03-05T04:04:19;89255.59;;;7.91;82.64
72585;BME280;60618;40.084;32.908;2023-03-05T04:06:46;89248.22;;;7.66;83.43
72585;BME280;60618;40.084;32.908;2023-03-05T04:09:13;89243.75;;;7.57;83.26
72585;BME280;60618;40.084;32.908;2023-03-05T04:11:40;89235.66;;;7.31;84.01
72585;BME280;60618;40.084;32.908;2023-03-05T04:14:07;89239.09;;;7.08;85.17
72585;BME280;60618;40.084;32.908;2023-03-05T04:16:33;89237.75;;;6.74;86.24
72585;BME280;60618;40.084;32.908;2023-03-05T04:19:00;89235.44;;;6.52;87.97
72585;BME280;60618;40.084;32.908;2023-03-05T04:21:27;89229.31;;;6.46;89.53
72585;BME280;60618;40.084;32.908;2023-03-05T04:23:54;89229.50;;;6.42;90.53
72585;BME280;60618;40.084;32.908;2023-03-05T04:26:21;89225.88;;;6.54;90.03
72585;BME280;60618;40.084;32.908;2023-03-05T04:28:48;89227.38;;;6.70;89.68
72585;BME280;60618;40.084;32.908;2023-03-05T04:31:14;89236.53;;;6.84;89.07
72585;BME280;60618;40.084;32.908;2023-03-05T04:33:41;89228.13;;;6.86;88.80
72585;BME280;60618;40.084;32.908;2023-03-05T04:36:08;89246.22;;;7.02;88.03
72585;BME280;60618;40.084;32.908;2023-03-05T04:38:35;89244.59;;;7.19;87.10
72585;BME280;60618;40.084;32.908;2023-03-05T04:41:02;89241.56;;;7.41;85.83
72585;BME280;60618;40.084;32.908;2023-03-05T04:43:29;89243.50;;;7.55;85.26
72585;BME280;60618;40.084;32.908;2023-03-05T04:45:56;89241.47;;;7.65;84.77
72585;BME280;60618;40.084;32.908;2023-03-05T04:48:23;89250.31;;;7.77;83.91
72585;BME280;60618;40.084;32.908;2023-03-05T04:50:50;89257.63;;;7.82;84.07
72585;BME280;60618;40.084;32.908;2023-03-05T04:53:17;89244.44;;;7.87;83.88
72585;BME280;60618;40.084;32.908;2023-03-05T04:55:44;89249.75;;;7.87;84.10
72585;BME280;60618;40.084;32.908;2023-03-05T04:58:11;89244.53;;;7.93;83.83
72585;BME280;60618;40.084;32.908;2023-03-05T05:00:37;89246.81;;;8.00;83.38
72585;BME280;60618;40.084;32.908;2023-03-05T05:03:04;89252.38;;;8.02;83.64
72585;BME280;60618;40.084;32.908;2023-03-05T05:05:31;89250.59;;;8.14;82.97
72585;BME280;60618;40.084;32.908;2023-03-05T05:07:58;89248.75;;;8.20;81.71
72585;BME280;60618;40.084;32.908;2023-03-05T05:10:26;89255.31;;;8.24;82.35
72585;BME280;60618;40.084;32.908;2023-03-05T05:12:53;89246.97;;;8.32;81.67
72585;BME280;60618;40.084;32.908;2023-03-05T05:15:20;89245.06;;;8.32;81.52
72585;BME280;60618;40.084;32.908;2023-03-05T05:17:47;89246.75;;;8.15;81.53
72585;BME280;60618;40.084;32.908;2023-03-05T05:20:15;89247.59;;;8.06;81.86
72585;BME280;60618;40.084;32.908;2023-03-05T05:22:43;89243.56;;;7.61;82.42
72585;BME280;60618;40.084;32.908;2023-03-05T05:25:10;89245.50;;;7.16;85.07
72585;BME280;60618;40.084;32.908;2023-03-05T05:27:38;89249.38;;;6.91;86.32
72585;BME280;60618;40.084;32.908;2023-03-05T05:30:08;89256.25;;;6.98;87.02
72585;BME280;60618;40.084;32.908;2023-03-05T05:32:35;89251.53;;;7.17;86.44
72585;BME280;60618;40.084;32.908;2023-03-05T05:35:02;89255.00;;;7.23;86.50
72585;BME280;60618;40.084;32.908;2023-03-05T05:37:29;89261.47;;;7.07;88.60
72585;BME280;60618;40.084;32.908;2023-03-05T05:39:56;89252.59;;;6.95;88.98
72585;BME280;60618;40.084;32.908;2023-03-05T05:42:24;89263.72;;;6.85;90.01
72585;BME280;60618;40.084;32.908;2023-03-05T05:44:51;89272.13;;;6.83;91.48
72585;BME280;60618;40.084;32.908;2023-03-05T05:47:18;89266.19;;;6.88;91.30
72585;BME280;60618;40.084;32.908;2023-03-05T05:49:45;89275.03;;;6.85;91.57
72585;BME280;60618;40.084;32.908;2023-03-05T05:52:12;89271.75;;;6.90;90.70
72585;BME280;60618;40.084;32.908;2023-03-05T05:54:39;89267.59;;;7.13;89.57
72585;BME280;60618;40.084;32.908;2023-03-05T05:57:06;89262.13;;;7.17;88.97
72585;BME280;60618;40.084;32.908;2023-03-05T05:59:33;89263.06;;;7.28;88.35
72585;BME280;60618;40.084;32.908;2023-03-05T06:02:00;89265.41;;;7.26;87.85
72585;BME280;60618;40.084;32.908;2023-03-05T06:04:27;89269.16;;;7.20;88.94
72585;BME280;60618;40.084;32.908;2023-03-05T06:06:54;89266.31;;;7.08;88.80
72585;BME280;60618;40.084;32.908;2023-03-05T06:09:24;89265.56;;;6.93;90.15
72585;BME280;60618;40.084;32.908;2023-03-05T06:11:52;89272.28;;;6.79;91.00
72585;BME280;60618;40.084;32.908;2023-03-05T06:14:19;89268.28;;;6.84;90.73
72585;BME280;60618;40.084;32.908;2023-03-05T06:16:46;89282.06;;;6.88;92.31
72585;BME280;60618;40.084;32.908;2023-03-05T06:19:14;89285.00;;;6.90;92.65
72585;BME280;60618;40.084;32.908;2023-03-05T06:21:41;89279.69;;;6.90;90.64
72585;BME280;60618;40.084;32.908;2023-03-05T06:24:09;89284.53;;;6.92;88.83
72585;BME280;60618;40.084;32.908;2023-03-05T06:26:36;89276.16;;;6.93;88.76
72585;BME280;60618;40.084;32.908;2023-03-05T06:29:02;89279.63;;;6.99;89.31
72585;BME280;60618;40.084;32.908;2023-03-05T06:31:29;89281.06;;;7.00;88.91
72585;BME280;60618;40.084;32.908;2023-03-05T06:33:58;89275.69;;;6.95;86.88
72585;BME280;60618;40.084;32.908;2023-03-05T06:36:26;89276.16;;;6.93;86.19
72585;BME280;60618;40.084;32.908;2023-03-05T06:38:54;89275.25;;;6.96;86.79
72585;BME280;60618;40.084;32.908;2023-03-05T06:41:27;89284.91;;;6.99;86.73
72585;BME280;60618;40.084;32.908;2023-03-05T06:43:55;89274.63;;;7.01;86.90
72585;BME280;60618;40.084;32.908;2023-03-05T06:46:25;89269.94;;;6.96;86.19
72585;BME280;60618;40.084;32.908;2023-03-05T06:48:55;89264.38;;;7.09;88.30
72585;BME280;60618;40.084;32.908;2023-03-05T06:51:27;89264.56;;;7.05;88.10
72585;BME280;60618;40.084;32.908;2023-03-05T06:53:59;89259.75;;;7.04;88.19
72585;BME280;60618;40.084;32.908;2023-03-05T06:56:26;89252.78;;;7.06;87.23
72585;BME280;60618;40.084;32.908;2023-03-05T06:58:53;89249.34;;;7.15;87.11
72585;BME280;60618;40.084;32.908;2023-03-05T07:01:20;89239.13;;;7.23;87.46
72585;BME280;60618;40.084;32.908;2023-03-05T07:03:49;89238.75;;;7.30;87.49
72585;BME280;60618;40.084;32.908;2023-03-05T07:06:16;89242.84;;;7.31;86.42
72585;BME280;60618;40.084;32.908;2023-03-05T07:08:43;89254.00;;;7.35;86.52
72585;BME280;60618;40.084;32.908;2023-03-05T07:11:11;89243.50;;;7.40;86.58
72585;BME280;60618;40.084;32.908;2023-03-05T07:13:39;89234.34;;;7.42;85.07
72585;BME280;60618;40.084;32.908;2023-03-05T07:16:08;89237.00;;;7.42;85.85
72585;BME280;60618;40.084;32.908;2023-03-05T07:18:35;89233.72;;;7.47;85.86
72585;BME280;60618;40.084;32.908;2023-03-05T07:21:06;89233.00;;;7.46;85.48
72585;BME280;60618;40.084;32.908;2023-03-05T07:23:34;89233.78;;;7.52;85.98
72585;BME280;60618;40.084;32.908;2023-03-05T07:26:03;89233.78;;;7.52;83.80
72585;BME280;60618;40.084;32.908;2023-03-05T07:28:31;89229.69;;;7.51;84.18
72585;BME280;60618;40.084;32.908;2023-03-05T07:31:00;89225.69;;;7.56;84.02
72585;BME280;60618;40.084;32.908;2023-03-05T07:33:28;89227.19;;;7.62;84.50
72585;BME280;60618;40.084;32.908;2023-03-05T07:35:55;89219.53;;;7.64;83.33
72585;BME280;60618;40.084;32.908;2023-03-05T07:38:22;89220.16;;;7.74;83.45
72585;BME280;60618;40.084;32.908;2023-03-05T07:40:49;89207.91;;;7.77;81.78
72585;BME280;60618;40.084;32.908;2023-03-05T07:43:16;89200.81;;;7.88;83.02
72585;BME280;60618;40.084;32.908;2023-03-05T07:45:45;89189.13;;;7.95;80.62
72585;BME280;60618;40.084;32.908;2023-03-05T07:48:15;89190.28;;;8.09;80.62
72585;BME280;60618;40.084;32.908;2023-03-05T07:50:42;89196.31;;;8.09;80.27
72585;BME280;60618;40.084;32.908;2023-03-05T07:53:09;89202.53;;;8.26;80.85
72585;BME280;60618;40.084;32.908;2023-03-05T07:55:46;89195.75;;;8.25;77.67
72585;BME280;60618;40.084;32.908;2023-03-05T07:58:13;89200.94;;;8.14;77.38
72585;BME280;60618;40.084;32.908;2023-03-05T08:00:40;89200.94;;;8.14;77.77
72585;BME280;60618;40.084;32.908;2023-03-05T08:03:07;89192.97;;;8.14;77.85
72585;BME280;60618;40.084;32.908;2023-03-05T08:05:34;89190.16;;;8.18;77.93
72585;BME280;60618;40.084;32.908;2023-03-05T08:08:06;89182.56;;;8.31;78.92
72585;BME280;60618;40.084;32.908;2023-03-05T08:10:34;89181.47;;;8.38;76.63
72585;BME280;60618;40.084;32.908;2023-03-05T08:13:02;89180.03;;;8.37;75.34
72585;BME280;60618;40.084;32.908;2023-03-05T08:15:29;89176.28;;;8.49;75.96
72585;BME280;60618;40.084;32.908;2023-03-05T08:17:56;89172.56;;;8.61;75.22
72585;BME280;60618;40.084;32.908;2023-03-05T08:20:23;89176.13;;;8.78;75.46
72585;BME280;60618;40.084;32.908;2023-03-05T08:22:50;89164.88;;;8.89;75.28
72585;BME280;60618;40.084;32.908;2023-03-05T08:25:17;89164.63;;;9.13;74.70
72585;BME280;60618;40.084;32.908;2023-03-05T08:27:46;89155.50;;;8.94;72.96
72585;BME280;60618;40.084;32.908;2023-03-05T08:30:19;89149.09;;;9.06;73.67
72585;BME280;60618;40.084;32.908;2023-03-05T08:32:48;89153.94;;;9.07;73.72
72585;BME280;60618;40.084;32.908;2023-03-05T08:35:15;89152.69;;;9.03;72.78
72585;BME280;60618;40.084;32.908;2023-03-05T08:37:42;89154.78;;;9.19;74.48
72585;BME280;60618;40.084;32.908;2023-03-05T08:40:09;89151.16;;;9.22;73.15
72585;BME280;60618;40.084;32.908;2023-03-05T08:42:36;89149.13;;;9.37;73.60
72585;BME280;60618;40.084;32.908;2023-03-05T08:45:03;89157.38;;;9.14;72.84
72585;BME280;60618;40.084;32.908;2023-03-05T08:47:30;89146.19;;;9.04;72.05
72585;BME280;60618;40.084;32.908;2023-03-05T08:49:57;89144.78;;;9.08;72.97
72585;BME280;60618;40.084;32.908;2023-03-05T08:52:25;89152.59;;;8.92;71.72
72585;BME280;60618;40.084;32.908;2023-03-05T08:54:52;89152.78;;;8.88;71.62
72585;BME280;60618;40.084;32.908;2023-03-05T08:57:19;89143.13;;;8.85;72.21
72585;BME280;60618;40.084;32.908;2023-03-05T08:59:46;89138.38;;;8.95;73.34
72585;BME280;60618;40.084;32.908;2023-03-05T09:02:13;89141.25;;;8.91;71.69
72585;BME280;60618;40.084;32.908;2023-03-05T09:04:40;89131.44;;;9.03;72.29
72585;BME280;60618;40.084;32.908;2023-03-05T09:07:07;89134.28;;;9.25;71.72
72585;BME280;60618;40.084;32.908;2023-03-05T09:09:35;89139.53;;;9.46;70.72
72585;BME280;60618;40.084;32.908;2023-03-05T09:12:03;89127.13;;;9.37;70.55
72585;BME280;60618;40.084;32.908;2023-03-05T09:14:30;89129.81;;;9.43;69.67
72585;BME280;60618;40.084;32.908;2023-03-05T09:16:57;89120.44;;;9.47;71.27
72585;BME280;60618;40.084;32.908;2023-03-05T09:19:24;89115.16;;;9.53;68.35
72585;BME280;60618;40.084;32.908;2023-03-05T09:21:51;89130.09;;;9.50;69.00
72585;BME280;60618;40.084;32.908;2023-03-05T09:24:22;89125.19;;;9.37;68.73
72585;BME280;60618;40.084;32.908;2023-03-05T09:26:49;89113.72;;;9.57;69.80
72585;BME280;60618;40.084;32.908;2023-03-05T09:29:15;89114.53;;;9.69;68.77
72585;BME280;60618;40.084;32.908;2023-03-05T09:31:42;89105.41;;;9.81;68.44
72585;BME280;60618;40.084;32.908;2023-03-05T09:34:10;89099.69;;;10.00;69.48
72585;BME280;60618;40.084;32.908;2023-03-05T09:36:37;89095.06;;;9.89;66.17
72585;BME280;60618;40.084;32.908;2023-03-05T09:39:04;89085.03;;;9.67;68.33
72585;BME280;60618;40.084;32.908;2023-03-05T09:41:38;89097.19;;;9.85;69.36
72585;BME280;60618;40.084;32.908;2023-03-05T09:47:01;89092.13;;;9.87;71.00
72585;BME280;60618;40.084;32.908;2023-03-05T09:52:42;89074.78;;;9.12;74.09
72585;BME280;60618;40.084;32.908;2023-03-05T09:55:19;89066.50;;;9.41;77.81
72585;BME280;60618;40.084;32.908;2023-03-05T09:57:51;89058.25;;;9.33;73.88
72585;BME280;60618;40.084;32.908;2023-03-05T10:02:59;89061.13;;;9.73;73.04
72585;BME280;60618;40.084;32.908;2023-03-05T10:05:35;89053.56;;;9.60;72.05
72585;BME280;60618;40.084;32.908;2023-03-05T10:08:09;89039.91;;;9.35;72.46
72585;BME280;60618;40.084;32.908;2023-03-05T10:10:40;89044.47;;;9.29;73.41
72585;BME280;60618;40.084;32.908;2023-03-05T10:13:15;89040.53;;;9.25;71.54
72585;BME280;60618;40.084;32.908;2023-03-05T10:19:07;89014.25;;;8.90;76.46
72585;BME280;60618;40.084;32.908;2023-03-05T10:22:32;89002.34;;;8.79;75.46
72585;BME280;60618;40.084;32.908;2023-03-05T10:24:39;88998.97;;;8.79;76.97
72585;BME280;60618;40.084;32.908;2023-03-05T10:27:15;88996.69;;;8.66;76.82
72585;BME280;60618;40.084;32.908;2023-03-05T10:40:47;88976.19;;;8.67;79.00
72585;BME280;60618;40.084;32.908;2023-03-05T10:43:46;88974.75;;;8.71;78.46
72585;BME280;60618;40.084;32.908;2023-03-05T10:46:19;88966.78;;;8.71;77.84
72585;BME280;60618;40.084;32.908;2023-03-05T10:51:21;88961.75;;;8.73;78.93
72585;BME280;60618;40.084;32.908;2023-03-05T10:54:21;88965.34;;;8.70;80.63
72585;BME280;60618;40.084;32.908;2023-03-05T10:56:48;88956.63;;;8.64;78.67
72585;BME280;60618;40.084;32.908;2023-03-05T10:59:36;88958.28;;;8.62;76.65
72585;BME280;60618;40.084;32.908;2023-03-05T11:02:26;88950.56;;;8.58;77.27
72585;BME280;60618;40.084;32.908;2023-03-05T11:04:59;88944.28;;;8.61;78.05
72585;BME280;60618;40.084;32.908;2023-03-05T11:07:31;88948.06;;;8.49;78.26
72585;BME280;60618;40.084;32.908;2023-03-05T11:10:24;88958.03;;;8.28;79.13
72585;BME280;60618;40.084;32.908;2023-03-05T11:12:51;88947.34;;;8.22;79.84
72585;BME280;60618;40.084;32.908;2023-03-05T11:15:29;88941.53;;;8.18;80.96
72585;BME280;60618;40.084;32.908;2023-03-05T11:18:18;88936.09;;;8.02;82.42
72585;BME280;60618;40.084;32.908;2023-03-05T11:21:07;88932.59;;;7.90;83.86
72585;BME280;60618;40.084;32.908;2023-03-05T11:23:34;88939.41;;;7.71;84.73
72585;BME280;60618;40.084;32.908;2023-03-05T11:26:21;88929.69;;;7.42;86.53
72585;BME280;60618;40.084;32.908;2023-03-05T11:28:55;88930.63;;;7.18;88.87
72585;BME280;60618;40.084;32.908;2023-03-05T11:31:26;88927.59;;;7.05;89.91
72585;BME280;60618;40.084;32.908;2023-03-05T11:34:05;88933.22;;;6.92;91.48
72585;BME280;60618;40.084;32.908;2023-03-05T11:36:40;88928.06;;;6.83;92.92
72585;BME280;60618;40.084;32.908;2023-03-05T11:39:13;88923.59;;;6.74;92.50
72585;BME280;60618;40.084;32.908;2023-03-05T11:41:48;88920.06;;;6.63;92.61
72585;BME280;60618;40.084;32.908;2023-03-05T11:44:22;88915.97;;;6.62;93.05
72585;BME280;60618;40.084;32.908;2023-03-05T11:47:01;88907.09;;;6.65;93.27
72585;BME280;60618;40.084;32.908;2023-03-05T11:49:29;88928.25;;;6.65;94.59
72585;BME280;60618;40.084;32.908;2023-03-05T11:52:04;88900.56;;;6.60;94.51
72585;BME280;60618;40.084;32.908;2023-03-05T11:54:41;88907.63;;;6.48;91.87
72585;BME280;60618;40.084;32.908;2023-03-05T11:57:14;88901.00;;;6.38;91.48
72585;BME280;60618;40.084;32.908;2023-03-05T11:59:42;88891.88;;;6.39;93.26
72585;BME280;60618;40.084;32.908;2023-03-05T12:02:22;88899.50;;;6.37;93.74
72585;BME280;60618;40.084;32.908;2023-03-05T12:04:50;88898.88;;;6.42;95.59
72585;BME280;60618;40.084;32.908;2023-03-05T12:07:27;88891.88;;;6.39;95.92
72585;BME280;60618;40.084;32.908;2023-03-05T12:09:56;88898.78;;;6.37;96.18
72585;BME280;60618;40.084;32.908;2023-03-05T12:17:53;88886.56;;;6.39;97.73
72585;BME280;60618;40.084;32.908;2023-03-05T12:23:27;88872.50;;;6.13;94.89
72585;BME280;60618;40.084;32.908;2023-03-05T12:25:56;88873.03;;;6.17;94.54
72585;BME280;60618;40.084;32.908;2023-03-05T12:31:01;88870.75;;;6.10;95.35
72585;BME280;60618;40.084;32.908;2023-03-05T12:33:38;88877.16;;;6.03;94.71
72585;BME280;60618;40.084;32.908;2023-03-05T12:38:55;88851.56;;;5.94;95.75
72585;BME280;60618;40.084;32.908;2023-03-05T12:51:50;88845.72;;;5.90;96.20
72585;BME280;60618;40.084;32.908;2023-03-05T12:56:56;88843.97;;;5.87;96.72
72585;BME280;60618;40.084;32.908;2023-03-05T13:00:10;88827.56;;;5.83;95.46
72585;BME280;60618;40.084;32.908;2023-03-05T13:02:25;88827.88;;;5.85;96.02
72585;BME280;60618;40.084;32.908;2023-03-05T13:04:58;88819.47;;;5.87;96.59
72585;BME280;60618;40.084;32.908;2023-03-05T13:07:26;88823.00;;;5.84;96.41
72585;BME280;60618;40.084;32.908;2023-03-05T13:09:58;88822.69;;;5.76;96.05
72585;BME280;60618;40.084;32.908;2023-03-05T13:12:26;88823.22;;;5.80;95.96
72585;BME280;60618;40.084;32.908;2023-03-05T13:15:01;88820.31;;;5.78;96.53
72585;BME280;60618;40.084;32.908;2023-03-05T13:17:36;88813.38;;;5.81;96.68
72585;BME280;60618;40.084;32.908;2023-03-05T13:20:31;88812.19;;;5.82;95.89
72585;BME280;60618;40.084;32.908;2023-03-05T13:23:15;88807.34;;;5.80;95.34
72585;BME280;60618;40.084;32.908;2023-03-05T13:25:44;88793.78;;;5.87;95.41
72585;BME280;60618;40.084;32.908;2023-03-05T13:28:15;88796.06;;;5.94;94.52
72585;BME280;60618;40.084;32.908;2023-03-05T13:30:44;88793.31;;;5.89;93.65
72585;BME280;60618;40.084;32.908;2023-03-05T13:33:19;88794.97;;;5.86;91.64
72585;BME280;60618;40.084;32.908;2023-03-05T13:35:48;88791.59;;;5.86;91.91
72585;BME280;60618;40.084;32.908;2023-03-05T13:38:34;88785.03;;;5.81;91.77
72585;BME280;60618;40.084;32.908;2023-03-05T13:43:55;88781.03;;;5.86;92.70
72585;BME280;60618;40.084;32.908;2023-03-05T13:46:36;88778.28;;;5.80;92.22
72585;BME280;60618;40.084;32.908;2023-03-05T13:49:23;88782.66;;;5.83;93.33
72585;BME280;60618;40.084;32.908;2023-03-05T13:51:55;88776.31;;;5.75;94.43
72585;BME280;60618;40.084;32.908;2023-03-05T13:54:23;88770.75;;;5.73;94.44
72585;BME280;60618;40.084;32.908;2023-03-05T13:56:56;88773.69;;;5.75;94.40
72585;BME280;60618;40.084;32.908;2023-03-05T13:59:26;88759.28;;;5.76;94.22
72585;BME280;60618;40.084;32.908;2023-03-05T14:01:54;88756.91;;;5.78;94.08
72585;BME280;60618;40.084;32.908;2023-03-05T14:04:27;88748.03;;;5.81;94.46
72585;BME280;60618;40.084;32.908;2023-03-05T14:07:01;88748.31;;;5.83;93.87
72585;BME280;60618;40.084;32.908;2023-03-05T14:14:43;88722.84;;;6.01;94.19
72585;BME280;60618;40.084;32.908;2023-03-05T14:17:36;88713.47;;;6.00;94.68
72585;BME280;60618;40.084;32.908;2023-03-05T14:20:25;88712.09;;;6.04;94.47